Time;durP1;ratioP1;P1;durP2;ratioP2;P2;SDS_P1;SDS_P2;PMS_P1;PMS_P2;Temp;Humidity;BMP_temperature;BMP_pressure;BME280_temperature;BME280_humidity;BME280_pressure;Samples;Min_cycle;Max_cycle;Signal;HPM_P1;HPM_P2
2021/08/03 00:02:10;;;;;;;1.27;0.57;;;;;;;;;;5020814;28;20057;-72
2021/08/03 00:04:41;;;;;;;1.30;0.60;;;;;;;;;;5020629;28;22274;-72
2021/08/03 00:07:11;;;;;;;2.75;0.80;;;;;;;;;;5023366;28;20068;-72
2021/08/03 00:09:38;;;;;;;4.28;0.80;;;;;;;;;;5021262;28;20053;-72
2021/08/03 00:12:06;;;;;;;1.50;0.50;;;;;;;;;;5023166;28;20037;-72
2021/08/03 00:14:33;;;;;;;2.63;0.70;;;;;;;;;;5019840;28;20084;-72
2021/08/03 00:16:59;;;;;;;6.28;0.77;;;;;;;;;;5021563;28;20061;-72
2021/08/03 00:19:26;;;;;;;1.67;0.68;;;;;;;;;;5021128;28;20710;-72
2021/08/03 00:21:53;;;;;;;1.88;0.57;;;;;;;;;;5019293;28;20069;-71
2021/08/03 00:24:26;;;;;;;0.80;0.55;;;;;;;;;;5019440;28;20115;-72
2021/08/03 00:26:53;;;;;;;2.03;0.60;;;;;;;;;;5022449;28;20194;-72
2021/08/03 00:29:19;;;;;;;1.13;0.50;;;;;;;;;;5020904;28;20061;-72
2021/08/03 00:31:46;;;;;;;2.25;0.70;;;;;;;;;;5020935;28;20119;-72
2021/08/03 00:34:12;;;;;;;1.48;0.63;;;;;;;;;;5019383;28;20054;-73
2021/08/03 00:36:38;;;;;;;1.70;0.65;;;;;;;;;;5021908;28;20064;-72
2021/08/03 00:39:05;;;;;;;1.92;0.70;;;;;;;;;;5022054;28;20486;-72
2021/08/03 00:41:37;;;;;;;1.27;0.60;;;;;;;;;;5020567;28;20057;-72
2021/08/03 00:44:04;;;;;;;3.30;1.13;;;;;;;;;;5020104;28;20065;-72
2021/08/03 00:46:30;;;;;;;1.33;0.50;;;;;;;;;;5020805;28;20062;-72
2021/08/03 00:48:57;;;;;;;2.50;0.85;;;;;;;;;;5021988;28;20053;-72
2021/08/03 00:51:24;;;;;;;2.25;0.70;;;;;;;;;;5022628;28;20057;-73
2021/08/03 00:53:50;;;;;;;3.17;0.70;;;;;;;;;;5024548;28;20068;-73
2021/08/03 00:56:17;;;;;;;0.47;0.43;;;;;;;;;;5023733;28;20069;-73
2021/08/03 00:58:43;;;;;;;2.10;0.70;;;;;;;;;;5025439;28;20037;-73
2021/08/03 01:01:11;;;;;;;5.55;0.90;;;;;;;;;;5023932;28;20073;-74
2021/08/03 01:03:37;;;;;;;2.35;0.63;;;;;;;;;;5025853;28;20497;-73
2021/08/03 01:06:22;;;;;;;2.35;0.65;;;;;;;;;;5024959;28;20122;-72
2021/08/03 01:08:51;;;;;;;2.15;0.70;;;;;;;;;;5023646;28;21199;-73
2021/08/03 01:11:21;;;;;;;2.40;0.88;;;;;;;;;;5023662;28;20072;-73
2021/08/03 01:13:59;;;;;;;3.42;0.70;;;;;;;;;;5024169;28;20076;-72
2021/08/03 01:16:28;;;;;;;4.80;1.23;;;;;;;;;;5022836;28;20064;-72
2021/08/03 01:19:10;;;;;;;3.08;0.70;;;;;;;;;;5052329;28;20710;-72
2021/08/03 01:21:44;;;;;;;1.48;0.57;;;;;;;;;;5024249;28;20512;-72
2021/08/03 01:24:24;;;;;;;4.53;0.90;;;;;;;;;;5022559;28;20489;-73
2021/08/03 01:27:09;;;;;;;1.83;0.65;;;;;;;;;;5024392;28;20135;-73
2021/08/03 01:29:36;;;;;;;2.83;0.77;;;;;;;;;;5013525;28;22009;-73
2021/08/03 01:32:08;;;;;;;0.95;0.50;;;;;;;;;;5024729;28;20462;-73
2021/08/03 01:34:42;;;;;;;3.67;0.70;;;;;;;;;;5021218;28;20044;-72
2021/08/03 01:37:09;;;;;;;2.00;0.60;;;;;;;;;;5021269;28;20115;-72
2021/08/03 01:39:37;;;;;;;1.42;0.63;;;;;;;;;;5021014;28;20611;-72
2021/08/03 01:42:04;;;;;;;2.15;0.88;;;;;;;;;;5022586;28;20131;-72
2021/08/03 01:44:35;;;;;;;2.85;0.65;;;;;;;;;;5022079;28;20107;-72
2021/08/03 01:47:03;;;;;;;1.33;0.70;;;;;;;;;;5023331;28;20505;-71
2021/08/03 01:49:34;;;;;;;3.25;0.90;;;;;;;;;;5021340;28;20123;-71
2021/08/03 01:52:01;;;;;;;3.67;0.70;;;;;;;;;;5055558;28;20122;-71
2021/08/03 01:54:28;;;;;;;1.17;0.65;;;;;;;;;;5020960;28;20053;-71
2021/08/03 01:56:54;;;;;;;2.10;0.80;;;;;;;;;;5021538;28;20046;-71
2021/08/03 01:59:22;;;;;;;2.33;0.70;;;;;;;;;;5022768;28;21354;-71
2021/08/03 02:01:48;;;;;;;1.90;0.68;;;;;;;;;;5022932;28;20103;-72
2021/08/03 02:04:16;;;;;;;2.08;0.70;;;;;;;;;;5024116;28;20123;-72
2021/08/03 02:06:43;;;;;;;1.13;0.52;;;;;;;;;;5023413;28;20500;-71
2021/08/03 02:09:10;;;;;;;5.15;1.33;;;;;;;;;;5054703;28;20139;-71
2021/08/03 02:11:37;;;;;;;1.27;0.60;;;;;;;;;;5022269;28;20057;-72
2021/08/03 02:14:04;;;;;;;3.55;1.02;;;;;;;;;;5023371;28;20065;-72
2021/08/03 02:16:30;;;;;;;2.03;0.75;;;;;;;;;;5022480;28;20059;-72
2021/08/03 02:18:57;;;;;;;1.48;0.75;;;;;;;;;;5023865;28;20113;-73
2021/08/03 02:21:24;;;;;;;1.35;0.75;;;;;;;;;;5020878;28;20042;-72
2021/08/03 02:23:51;;;;;;;1.88;0.70;;;;;;;;;;5023035;28;20061;-72
2021/08/03 02:26:18;;;;;;;2.92;0.90;;;;;;;;;;5051938;28;20073;-73
2021/08/03 02:28:44;;;;;;;2.85;0.82;;;;;;;;;;5054650;28;20115;-72
2021/08/03 02:31:23;;;;;;;2.65;0.85;;;;;;;;;;5023123;28;20068;-74
2021/08/03 02:33:53;;;;;;;3.65;0.80;;;;;;;;;;5054469;28;20520;-72
2021/08/03 02:36:21;;;;;;;1.98;0.90;;;;;;;;;;5022078;28;20593;-73
2021/08/03 02:38:50;;;;;;;1.80;0.70;;;;;;;;;;5024090;28;20053;-72
2021/08/03 02:41:17;;;;;;;1.45;0.68;;;;;;;;;;5021522;28;20057;-73
2021/08/03 02:43:46;;;;;;;1.67;0.60;;;;;;;;;;5023172;28;20053;-73
2021/08/03 02:46:15;;;;;;;2.75;1.02;;;;;;;;;;5023049;28;20119;-74
2021/08/03 02:48:42;;;;;;;3.33;0.80;;;;;;;;;;5022725;28;20056;-73
2021/08/03 02:51:10;;;;;;;3.08;0.70;;;;;;;;;;5035838;28;20037;-72
2021/08/03 02:53:39;;;;;;;2.35;0.95;;;;;;;;;;5019473;28;20061;-72
2021/08/03 02:56:13;;;;;;;1.55;0.80;;;;;;;;;;5018581;28;20061;-72
2021/08/03 02:58:45;;;;;;;2.80;0.80;;;;;;;;;;5021900;28;20033;-72
2021/08/03 03:01:12;;;;;;;2.85;0.98;;;;;;;;;;5053030;28;20512;-73
2021/08/03 03:03:42;;;;;;;4.22;0.60;;;;;;;;;;5022201;28;20069;-72
2021/08/03 03:06:11;;;;;;;2.60;1.10;;;;;;;;;;5021819;28;20069;-72
2021/08/03 03:08:39;;;;;;;4.90;1.13;;;;;;;;;;5034654;28;20103;-73
2021/08/03 03:11:07;;;;;;;1.92;0.65;;;;;;;;;;5019143;28;20521;-72
2021/08/03 03:13:53;;;;;;;2.72;0.80;;;;;;;;;;5018747;28;20107;-73
2021/08/03 03:16:20;;;;;;;1.80;0.70;;;;;;;;;;5022110;28;20077;-73
2021/08/03 03:18:47;;;;;;;1.88;0.75;;;;;;;;;;5023442;28;20061;-72
2021/08/03 03:21:21;;;;;;;2.05;0.65;;;;;;;;;;5019327;28;20127;-73
2021/08/03 03:23:51;;;;;;;2.53;0.80;;;;;;;;;;5019461;28;20356;-72
2021/08/03 03:26:20;;;;;;;1.80;0.65;;;;;;;;;;5019607;28;20080;-73
2021/08/03 03:28:47;;;;;;;2.78;0.77;;;;;;;;;;5020314;28;20060;-73
2021/08/03 03:31:14;;;;;;;1.92;0.70;;;;;;;;;;5021352;28;21379;-73
2021/08/03 03:33:41;;;;;;;2.03;0.50;;;;;;;;;;5021034;28;20053;-73
2021/08/03 03:36:08;;;;;;;2.22;1.00;;;;;;;;;;5022825;28;20065;-73
2021/08/03 03:38:37;;;;;;;3.15;0.88;;;;;;;;;;5035608;28;20520;-72
2021/08/03 03:41:04;;;;;;;2.00;0.77;;;;;;;;;;5021704;28;20099;-72
2021/08/03 03:43:31;;;;;;;1.67;0.70;;;;;;;;;;5019716;28;20116;-71
2021/08/03 03:46:04;;;;;;;2.13;0.70;;;;;;;;;;5021983;28;20469;-72
2021/08/03 03:48:33;;;;;;;2.50;0.65;;;;;;;;;;5050796;28;20049;-71
2021/08/03 03:51:00;;;;;;;1.70;0.60;;;;;;;;;;5036842;28;20064;-72
2021/08/03 03:53:32;;;;;;;1.33;0.68;;;;;;;;;;5020422;28;20501;-72
2021/08/03 03:55:59;;;;;;;2.35;0.85;;;;;;;;;;5019929;28;20053;-72
2021/08/03 03:58:28;;;;;;;1.60;0.80;;;;;;;;;;5020101;28;20065;-72
2021/08/03 04:00:55;;;;;;;0.90;0.57;;;;;;;;;;5022937;28;20122;-72
2021/08/03 04:03:22;;;;;;;1.70;0.68;;;;;;;;;;5052387;28;20063;-73
2021/08/03 04:05:50;;;;;;;2.63;0.70;;;;;;;;;;5020484;28;20191;-71
2021/08/03 04:08:16;;;;;;;1.27;0.60;;;;;;;;;;5020590;28;20119;-72
2021/08/03 04:10:43;;;;;;;1.30;0.73;;;;;;;;;;5021407;28;20131;-71
2021/08/03 04:13:09;;;;;;;2.13;0.70;;;;;;;;;;5031767;28;20073;-71
2021/08/03 04:15:37;;;;;;;2.22;0.85;;;;;;;;;;5018871;28;20053;-72
2021/08/03 04:18:04;;;;;;;2.53;0.80;;;;;;;;;;5023884;28;20065;-72
2021/08/03 04:20:36;;;;;;;1.40;0.70;;;;;;;;;;5027251;28;20056;-72
2021/08/03 04:23:02;;;;;;;1.05;0.43;;;;;;;;;;5022859;28;20057;-72
2021/08/03 04:25:29;;;;;;;1.70;0.60;;;;;;;;;;5035543;28;20042;-73
2021/08/03 04:27:56;;;;;;;1.35;0.95;;;;;;;;;;5024908;28;20069;-71
2021/08/03 04:30:22;;;;;;;3.35;0.88;;;;;;;;;;5022212;28;20112;-72
2021/08/03 04:32:49;;;;;;;1.10;0.65;;;;;;;;;;5024142;28;20054;-72
2021/08/03 04:35:15;;;;;;;1.75;0.65;;;;;;;;;;5023408;28;20049;-72
2021/08/03 04:37:46;;;;;;;1.77;0.70;;;;;;;;;;5026193;28;20065;-72
2021/08/03 04:40:13;;;;;;;1.95;0.80;;;;;;;;;;5023370;28;20057;-73
2021/08/03 04:42:40;;;;;;;2.13;0.80;;;;;;;;;;5024979;28;20061;-72
2021/08/03 04:45:07;;;;;;;1.60;0.80;;;;;;;;;;5054379;28;20049;-72
2021/08/03 04:47:33;;;;;;;1.80;0.70;;;;;;;;;;5023035;28;20057;-73
2021/08/03 04:50:00;;;;;;;1.92;0.80;;;;;;;;;;5024842;28;21478;-70
2021/08/03 04:52:26;;;;;;;1.10;0.70;;;;;;;;;;5023232;28;20064;-72
2021/08/03 04:54:53;;;;;;;2.13;0.80;;;;;;;;;;5025538;28;20057;-72
2021/08/03 04:57:19;;;;;;;2.30;0.88;;;;;;;;;;5024146;28;20057;-73
2021/08/03 04:59:49;;;;;;;2.70;0.90;;;;;;;;;;5020709;28;20057;-73
2021/08/03 05:02:15;;;;;;;1.20;0.65;;;;;;;;;;5005976;28;20052;-72
2021/08/03 05:04:42;;;;;;;2.10;1.00;;;;;;;;;;5024533;28;20442;-73
2021/08/03 05:07:11;;;;;;;1.25;0.80;;;;;;;;;;5016535;28;20053;-72
2021/08/03 05:09:38;;;;;;;2.03;0.90;;;;;;;;;;5022904;28;20038;-73
2021/08/03 05:12:04;;;;;;;1.70;0.80;;;;;;;;;;5022824;28;20037;-71
2021/08/03 05:14:31;;;;;;;1.48;0.68;;;;;;;;;;5036067;28;21837;-72
2021/08/03 05:16:57;;;;;;;1.92;0.80;;;;;;;;;;5025017;28;20069;-72
2021/08/03 05:19:24;;;;;;;2.38;1.17;;;;;;;;;;5055640;28;20064;-72
2021/08/03 05:21:50;;;;;;;1.48;0.77;;;;;;;;;;5054479;28;20038;-71
2021/08/03 05:24:16;;;;;;;2.35;0.80;;;;;;;;;;5023062;28;20064;-71
2021/08/03 05:26:43;;;;;;;3.00;0.70;;;;;;;;;;5023513;28;20139;-72
2021/08/03 05:29:09;;;;;;;1.25;0.70;;;;;;;;;;5022674;28;20430;-71
2021/08/03 05:31:36;;;;;;;1.50;0.80;;;;;;;;;;5013661;28;20049;-72
2021/08/03 05:34:03;;;;;;;1.85;0.80;;;;;;;;;;5055787;28;20068;-72
2021/08/03 05:36:29;;;;;;;3.47;1.20;;;;;;;;;;5021790;28;20057;-72
2021/08/03 05:38:56;;;;;;;2.15;0.90;;;;;;;;;;5023695;28;20106;-71
2021/08/03 05:41:22;;;;;;;2.00;1.00;;;;;;;;;;5022224;28;20034;-72
2021/08/03 05:43:49;;;;;;;1.98;0.80;;;;;;;;;;5024305;28;20060;-72
2021/08/03 05:46:15;;;;;;;3.05;0.80;;;;;;;;;;5022714;28;20165;-72
2021/08/03 05:48:42;;;;;;;3.78;1.08;;;;;;;;;;5022628;28;20466;-72
2021/08/03 05:51:08;;;;;;;2.22;0.73;;;;;;;;;;5023698;28;20479;-72
2021/08/03 05:53:34;;;;;;;2.33;0.90;;;;;;;;;;5021820;28;20056;-72
2021/08/03 05:56:01;;;;;;;2.03;1.00;;;;;;;;;;5015784;28;20265;-72
2021/08/03 05:58:27;;;;;;;4.30;1.17;;;;;;;;;;5040600;28;20057;-71
2021/08/03 06:00:54;;;;;;;2.05;0.90;;;;;;;;;;5023761;28;20087;-71
2021/08/03 06:03:20;;;;;;;1.92;1.00;;;;;;;;;;5025544;28;20065;-72
2021/08/03 06:05:46;;;;;;;2.10;0.90;;;;;;;;;;5022315;28;20462;-72
2021/08/03 06:08:14;;;;;;;2.67;1.02;;;;;;;;;;5022479;28;20041;-72
2021/08/03 06:10:41;;;;;;;1.20;0.88;;;;;;;;;;5024103;28;20068;-71
2021/08/03 06:13:12;;;;;;;2.08;0.90;;;;;;;;;;5023681;28;20325;-72
2021/08/03 06:15:39;;;;;;;2.57;1.07;;;;;;;;;;5021985;28;21258;-72
2021/08/03 06:18:13;;;;;;;2.47;1.00;;;;;;;;;;5022079;28;20107;-72
2021/08/03 06:20:41;;;;;;;2.50;0.80;;;;;;;;;;5022304;28;20334;-72
2021/08/03 06:23:11;;;;;;;2.10;1.00;;;;;;;;;;5020450;28;20493;-72
2021/08/03 06:25:38;;;;;;;2.33;0.90;;;;;;;;;;5020532;28;22398;-72
2021/08/03 06:28:06;;;;;;;1.30;0.80;;;;;;;;;;5020664;28;20065;-72
2021/08/03 06:30:34;;;;;;;3.30;0.93;;;;;;;;;;5021499;28;20084;-72
2021/08/03 06:33:01;;;;;;;2.00;0.90;;;;;;;;;;5021769;28;20083;-72
2021/08/03 06:35:28;;;;;;;1.75;1.02;;;;;;;;;;5022169;28;20107;-74
2021/08/03 06:37:55;;;;;;;2.05;0.80;;;;;;;;;;5022364;28;20104;-73
2021/08/03 06:40:21;;;;;;;2.10;0.88;;;;;;;;;;5020695;28;20061;-73
2021/08/03 06:42:49;;;;;;;3.10;1.17;;;;;;;;;;5023158;28;20446;-71
2021/08/03 06:45:20;;;;;;;2.72;1.10;;;;;;;;;;5021203;28;20065;-73
2021/08/03 06:47:50;;;;;;;3.72;1.30;;;;;;;;;;5020295;28;20060;-72
2021/08/03 06:50:18;;;;;;;2.28;1.20;;;;;;;;;;5019968;28;20073;-72
2021/08/03 06:52:44;;;;;;;2.83;1.20;;;;;;;;;;5021482;28;20060;-73
2021/08/03 06:55:15;;;;;;;4.18;1.00;;;;;;;;;;5021947;28;20069;-73
2021/08/03 06:57:42;;;;;;;;;;;;;;;;;;5020934;28;20684;-73
2021/08/03 07:00:09;;;;;;;1.30;0.70;;;;;;;;;;5021084;28;19947;-74
2021/08/03 07:02:37;;;;;;;2.35;0.95;;;;;;;;;;5021519;28;20049;-75
2021/08/03 07:05:13;;;;;;;4.40;1.08;;;;;;;;;;5022329;28;20073;-75
2021/08/03 07:07:39;;;;;;;5.43;0.90;;;;;;;;;;5018873;28;21666;-76
2021/08/03 07:10:07;;;;;;;6.20;1.02;;;;;;;;;;5022260;28;20442;-74
2021/08/03 07:12:34;;;;;;;3.45;1.15;;;;;;;;;;5021142;28;20179;-75
2021/08/03 07:15:00;;;;;;;5.55;1.20;;;;;;;;;;5022479;28;20058;-75
2021/08/03 07:17:29;;;;;;;2.80;1.08;;;;;;;;;;5018371;28;20073;-75
2021/08/03 07:19:57;;;;;;;4.93;1.05;;;;;;;;;;5020854;28;20548;-75
2021/08/03 07:22:25;;;;;;;3.55;1.50;;;;;;;;;;5021275;28;20061;-75
2021/08/03 07:24:52;;;;;;;1.55;0.80;;;;;;;;;;5021726;28;20122;-74
2021/08/03 07:27:18;;;;;;;2.95;1.20;;;;;;;;;;5019959;28;20571;-75
2021/08/03 07:29:45;;;;;;;3.03;1.00;;;;;;;;;;5021070;28;20589;-73
2021/08/03 07:32:14;;;;;;;2.88;1.10;;;;;;;;;;5020549;28;20061;-73
2021/08/03 07:34:41;;;;;;;2.05;0.93;;;;;;;;;;5020059;28;20087;-74
2021/08/03 07:37:08;;;;;;;2.20;0.80;;;;;;;;;;5016859;28;20092;-74
2021/08/03 07:39:36;;;;;;;2.22;1.10;;;;;;;;;;5020452;28;20115;-74
2021/08/03 07:42:03;;;;;;;2.83;1.02;;;;;;;;;;5019343;28;20092;-74
2021/08/03 07:44:29;;;;;;;3.08;1.00;;;;;;;;;;5020758;28;20143;-74
2021/08/03 07:46:56;;;;;;;2.65;1.20;;;;;;;;;;5021857;28;20061;-73
2021/08/03 07:49:22;;;;;;;10.10;1.52;;;;;;;;;;5019710;28;20045;-75
2021/08/03 07:51:50;;;;;;;2.55;1.08;;;;;;;;;;5021243;28;20077;-75
2021/08/03 07:54:17;;;;;;;6.05;1.38;;;;;;;;;;5020235;28;20057;-76
2021/08/03 07:56:43;;;;;;;3.40;1.13;;;;;;;;;;5022386;28;20041;-75
2021/08/03 07:59:09;;;;;;;2.88;1.00;;;;;;;;;;5022265;28;20065;-76
2021/08/03 08:01:37;;;;;;;1.92;1.20;;;;;;;;;;5015343;28;20068;-76
2021/08/03 08:04:03;;;;;;;3.83;1.25;;;;;;;;;;5025344;28;20689;-73
2021/08/03 08:06:30;;;;;;;3.17;1.02;;;;;;;;;;5023252;28;20057;-74
2021/08/03 08:08:56;;;;;;;2.92;1.20;;;;;;;;;;5024755;28;20056;-74
2021/08/03 08:11:23;;;;;;;3.60;1.10;;;;;;;;;;5023346;28;20462;-73
2021/08/03 08:13:50;;;;;;;2.80;1.10;;;;;;;;;;5025028;28;20575;-72
2021/08/03 08:16:16;;;;;;;2.47;0.90;;;;;;;;;;5023976;28;20063;-73
2021/08/03 08:18:43;;;;;;;2.58;1.20;;;;;;;;;;5026734;28;20049;-73
2021/08/03 08:21:09;;;;;;;2.85;1.30;;;;;;;;;;5025021;28;21122;-72
2021/08/03 08:23:36;;;;;;;2.47;1.13;;;;;;;;;;5024266;28;20144;-73
2021/08/03 08:26:03;;;;;;;2.80;1.35;;;;;;;;;;5055903;28;20064;-73
2021/08/03 08:28:29;;;;;;;7.00;1.20;;;;;;;;;;5024924;28;20069;-72
2021/08/03 08:30:56;;;;;;;2.83;1.17;;;;;;;;;;5056534;28;20068;-74
2021/08/03 08:33:23;;;;;;;4.13;1.08;;;;;;;;;;5024108;28;20061;-74
2021/08/03 08:35:49;;;;;;;5.35;1.40;;;;;;;;;;5024672;28;20092;-73
2021/08/03 08:38:15;;;;;;;5.82;1.70;;;;;;;;;;5022052;28;20126;-74
2021/08/03 08:40:43;;;;;;;3.97;1.58;;;;;;;;;;5024388;28;20407;-73
2021/08/03 08:43:14;;;;;;;3.38;1.23;;;;;;;;;;5024874;28;20061;-74
2021/08/03 08:45:44;;;;;;;2.63;1.10;;;;;;;;;;5051278;28;20041;-74
2021/08/03 08:48:12;;;;;;;3.15;1.30;;;;;;;;;;5022633;28;20069;-74
2021/08/03 08:50:38;;;;;;;4.40;1.05;;;;;;;;;;5022717;28;20550;-73
2021/08/03 08:53:05;;;;;;;3.20;1.20;;;;;;;;;;5022449;28;20110;-73
2021/08/03 08:55:31;;;;;;;2.15;1.02;;;;;;;;;;5054514;28;22900;-74
2021/08/03 08:57:58;;;;;;;3.38;1.10;;;;;;;;;;5054811;28;20071;-73
2021/08/03 09:00:24;;;;;;;2.72;1.10;;;;;;;;;;5023096;28;20053;-73
2021/08/03 09:02:53;;;;;;;3.65;1.20;;;;;;;;;;5024898;28;20053;-72
2021/08/03 09:05:32;;;;;;;4.53;1.17;;;;;;;;;;5030128;28;20084;-73
2021/08/03 09:08:00;;;;;;;4.47;1.33;;;;;;;;;;5025749;28;20061;-72
2021/08/03 09:10:28;;;;;;;3.88;1.38;;;;;;;;;;5028297;28;20029;-74
2021/08/03 09:12:58;;;;;;;3.28;1.08;;;;;;;;;;5029790;28;20053;-75
2021/08/03 09:15:25;;;;;;;2.88;1.13;;;;;;;;;;5028793;28;20041;-76
2021/08/03 09:17:51;;;;;;;2.03;0.95;;;;;;;;;;5029695;28;20053;-76
2021/08/03 09:20:18;;;;;;;4.82;1.17;;;;;;;;;;5028038;28;20405;-75
2021/08/03 09:22:48;;;;;;;3.15;1.40;;;;;;;;;;5052873;28;20127;-73
2021/08/03 09:25:16;;;;;;;3.28;1.20;;;;;;;;;;5014299;28;20766;-76
2021/08/03 09:27:50;;;;;;;2.90;1.20;;;;;;;;;;5016793;28;20049;-75
2021/08/03 09:30:20;;;;;;;4.10;1.20;;;;;;;;;;5024544;28;20065;-76
2021/08/03 09:32:47;;;;;;;4.60;1.20;;;;;;;;;;5023336;28;20065;-75
2021/08/03 09:35:15;;;;;;;4.75;1.45;;;;;;;;;;5022823;28;20065;-74
2021/08/03 09:37:42;;;;;;;17.30;3.15;;;;;;;;;;5021251;28;20075;-76
2021/08/03 09:40:18;;;;;;;15.32;4.15;;;;;;;;;;5022822;28;20073;-76
2021/08/03 09:42:45;;;;;;;12.23;2.80;;;;;;;;;;5052218;28;20061;-74
2021/08/03 09:45:11;;;;;;;7.95;2.10;;;;;;;;;;5021513;28;20481;-75
2021/08/03 09:47:38;;;;;;;6.05;1.75;;;;;;;;;;5021711;28;20666;-75
2021/08/03 09:50:06;;;;;;;7.00;1.50;;;;;;;;;;5022672;28;20631;-74
2021/08/03 09:52:35;;;;;;;6.53;1.25;;;;;;;;;;5023569;28;20088;-75
2021/08/03 09:55:11;;;;;;;4.72;1.50;;;;;;;;;;5022716;28;20146;-75
2021/08/03 09:57:38;;;;;;;2.53;0.95;;;;;;;;;;5022563;28;20621;-75
2021/08/03 10:00:24;;;;;;;4.50;1.42;;;;;;;;;;5023225;28;20079;-76
2021/08/03 10:02:51;;;;;;;5.82;1.75;;;;;;;;;;5022327;28;21757;-75
2021/08/03 10:05:18;;;;;;;3.28;1.20;;;;;;;;;;5021430;28;20131;-75
2021/08/03 10:07:45;;;;;;;5.03;1.23;;;;;;;;;;5023613;28;20065;-75
2021/08/03 10:10:12;;;;;;;4.18;1.13;;;;;;;;;;5023891;28;20572;-75
2021/08/03 10:12:39;;;;;;;5.53;1.05;;;;;;;;;;5018333;28;20068;-75
2021/08/03 10:15:08;;;;;;;3.85;1.55;;;;;;;;;;5022657;28;20122;-75
2021/08/03 10:17:35;;;;;;;4.57;1.50;;;;;;;;;;5023488;28;20057;-75
2021/08/03 10:20:02;;;;;;;3.72;1.13;;;;;;;;;;5024357;28;20073;-75
2021/08/03 10:22:30;;;;;;;4.13;1.25;;;;;;;;;;5022217;28;20559;-75
2021/08/03 10:25:11;;;;;;;4.65;1.13;;;;;;;;;;5023786;28;20069;-75
2021/08/03 10:27:51;;;;;;;4.28;1.30;;;;;;;;;;5022689;28;20069;-76
2021/08/03 10:30:27;;;;;;;5.30;1.75;;;;;;;;;;5021873;28;20111;-76
2021/08/03 10:32:53;;;;;;;5.53;1.13;;;;;;;;;;5023932;28;20053;-75
2021/08/03 10:35:37;;;;;;;2.30;1.08;;;;;;;;;;5022859;28;20064;-76
2021/08/03 10:38:04;;;;;;;2.72;1.00;;;;;;;;;;5054673;28;20191;-75
2021/08/03 10:40:49;;;;;;;2.90;1.33;;;;;;;;;;5020745;28;20077;-74
2021/08/03 10:43:20;;;;;;;5.15;1.35;;;;;;;;;;5020768;28;20077;-75
2021/08/03 10:45:47;;;;;;;2.72;1.20;;;;;;;;;;5021929;28;20061;-75
2021/08/03 10:48:32;;;;;;;2.78;1.10;;;;;;;;;;5021343;28;20211;-75
2021/08/03 10:50:58;;;;;;;5.38;1.40;;;;;;;;;;5021154;28;20064;-75
2021/08/03 10:53:44;;;;;;;5.68;1.33;;;;;;;;;;5021481;28;20501;-75
2021/08/03 10:56:11;;;;;;;4.88;1.60;;;;;;;;;;5021502;28;20733;-76
2021/08/03 10:58:37;;;;;;;4.18;1.27;;;;;;;;;;5053147;28;20056;-75
2021/08/03 11:01:04;;;;;;;2.80;1.13;;;;;;;;;;5054133;28;21300;-75
2021/08/03 11:03:33;;;;;;;3.20;1.05;;;;;;;;;;5021012;28;20064;-75
2021/08/03 11:06:06;;;;;;;3.28;1.05;;;;;;;;;;5022153;28;20060;-74
2021/08/03 11:08:32;;;;;;;2.63;1.20;;;;;;;;;;5022606;28;20438;-75
2021/08/03 11:11:06;;;;;;;3.83;1.13;;;;;;;;;;5023322;28;20114;-75
2021/08/03 11:13:49;;;;;;;4.63;1.42;;;;;;;;;;5020591;28;20069;-75
2021/08/03 11:16:25;;;;;;;3.78;1.00;;;;;;;;;;5021116;28;20107;-75
2021/08/03 11:18:52;;;;;;;2.22;0.88;;;;;;;;;;5020808;28;20102;-75
2021/08/03 11:21:19;;;;;;;3.95;1.30;;;;;;;;;;5020042;28;20708;-75
2021/08/03 11:24:03;;;;;;;5.68;1.25;;;;;;;;;;5022463;28;20115;-75
2021/08/03 11:26:34;;;;;;;3.67;1.15;;;;;;;;;;5021401;28;20107;-76
2021/08/03 11:29:06;;;;;;;6.43;1.30;;;;;;;;;;5022106;28;20084;-75
2021/08/03 11:31:32;;;;;;;;;;;;;;;;;;5019008;28;20120;-75
2021/08/03 11:33:58;;;;;;;3.25;1.23;;;;;;;;;;5049229;28;20411;-75
2021/08/03 11:36:25;;;;;;;5.38;1.23;;;;;;;;;;5021039;28;20087;-76
2021/08/03 11:38:51;;;;;;;3.13;1.00;;;;;;;;;;5022091;28;20700;-77
2021/08/03 11:41:18;;;;;;;2.35;1.17;;;;;;;;;;5022362;28;20065;-76
2021/08/03 11:43:45;;;;;;;4.07;1.48;;;;;;;;;;5019257;28;20056;-76
2021/08/03 11:46:11;;;;;;;2.92;1.10;;;;;;;;;;5023375;28;20118;-75
2021/08/03 11:48:37;;;;;;;4.78;1.20;;;;;;;;;;5052975;28;20080;-76
2021/08/03 11:51:13;;;;;;;7.13;1.65;;;;;;;;;;5020544;28;20068;-77
2021/08/03 11:53:41;;;;;;;3.65;1.17;;;;;;;;;;5051277;28;21346;-76
2021/08/03 11:56:07;;;;;;;2.85;1.08;;;;;;;;;;5052890;28;20059;-76
2021/08/03 11:58:37;;;;;;;4.57;1.17;;;;;;;;;;5019837;28;20053;-75
2021/08/03 12:01:05;;;;;;;6.15;1.27;;;;;;;;;;5019524;28;20065;-75
2021/08/03 12:03:33;;;;;;;6.25;1.25;;;;;;;;;;5020076;28;20107;-76
2021/08/03 12:06:03;;;;;;;4.30;1.17;;;;;;;;;;5019675;28;20125;-74
2021/08/03 12:08:32;;;;;;;6.60;1.52;;;;;;;;;;5015699;28;20065;-74
2021/08/03 12:10:59;;;;;;;2.70;1.08;;;;;;;;;;5019774;28;20107;-75
2021/08/03 12:13:26;;;;;;;2.58;1.05;;;;;;;;;;5038636;28;20504;-76
2021/08/03 12:15:54;;;;;;;4.20;1.20;;;;;;;;;;5019813;28;20094;-77
2021/08/03 12:18:21;;;;;;;3.17;1.15;;;;;;;;;;5018351;28;20061;-76
2021/08/03 12:20:50;;;;;;;2.95;1.45;;;;;;;;;;5020611;28;20096;-76
2021/08/03 12:23:18;;;;;;;3.38;1.17;;;;;;;;;;5022619;28;20123;-78
2021/08/03 12:25:49;;;;;;;4.60;1.40;;;;;;;;;;5029713;28;20061;-78
2021/08/03 12:28:34;;;;;;;2.67;1.20;;;;;;;;;;5027767;28;20076;-77
2021/08/03 12:31:14;;;;;;;4.03;1.17;;;;;;;;;;5031217;28;20045;-78
2021/08/03 12:33:40;;;;;;;2.42;1.10;;;;;;;;;;5019566;28;21282;-76
2021/08/03 12:36:15;;;;;;;2.25;1.10;;;;;;;;;;5022438;28;20131;-77
2021/08/03 12:38:47;;;;;;;4.10;1.40;;;;;;;;;;5019567;28;21695;-77
2021/08/03 12:41:13;;;;;;;;;;;;;;;;;;5053426;28;20091;-78
2021/08/03 12:43:39;;;;;;;4.10;1.10;;;;;;;;;;5022644;28;20471;-80
2021/08/03 12:46:06;;;;;;;4.07;1.10;;;;;;;;;;5021887;28;20052;-77
2021/08/03 12:48:33;;;;;;;3.35;1.15;;;;;;;;;;5024483;28;20514;-78
2021/08/03 12:51:02;;;;;;;5.30;1.10;;;;;;;;;;5015998;28;20034;-77
2021/08/03 12:53:31;;;;;;;2.55;1.00;;;;;;;;;;5024241;28;20064;-77
2021/08/03 12:56:26;;;;;;;2.72;1.50;;;;;;;;;;5025733;28;20034;-79
2021/08/03 12:58:53;;;;;;;3.13;1.40;;;;;;;;;;5040771;28;20125;-78
2021/08/03 13:01:19;;;;;;;4.88;1.23;;;;;;;;;;5027900;28;20073;-76
2021/08/03 13:03:47;;;;;;;1.98;1.00;;;;;;;;;;5025161;28;20061;-76
2021/08/03 13:06:13;;;;;;;3.47;1.10;;;;;;;;;;5024266;28;20069;-77
2021/08/03 13:09:01;;;;;;;8.27;1.38;;;;;;;;;;5023218;28;20072;-77
2021/08/03 13:11:30;;;;;;;3.30;1.20;;;;;;;;;;5025947;28;20037;-76
2021/08/03 13:13:57;;;;;;;3.33;1.17;;;;;;;;;;5024141;28;20057;-76
2021/08/03 13:16:23;;;;;;;5.15;1.70;;;;;;;;;;5021933;28;20087;-78
2021/08/03 13:18:49;;;;;;;2.97;1.25;;;;;;;;;;5023531;28;20057;-74
2021/08/03 13:21:16;;;;;;;3.25;1.23;;;;;;;;;;5057673;28;20041;-75
2021/08/03 13:23:45;;;;;;;7.63;1.73;;;;;;;;;;5025874;28;20067;-75
2021/08/03 13:26:11;;;;;;;3.70;1.02;;;;;;;;;;5043903;28;20065;-74
2021/08/03 13:28:38;;;;;;;3.15;1.13;;;;;;;;;;5027654;28;20087;-75
2021/08/03 13:31:05;;;;;;;3.85;1.20;;;;;;;;;;5029593;28;20087;-74
2021/08/03 13:33:31;;;;;;;2.75;1.20;;;;;;;;;;5023794;28;20076;-75
2021/08/03 13:35:57;;;;;;;2.75;1.05;;;;;;;;;;5028928;28;20053;-73
2021/08/03 13:38:27;;;;;;;2.10;1.10;;;;;;;;;;5026491;28;20091;-75
2021/08/03 13:40:53;;;;;;;2.88;1.30;;;;;;;;;;5026904;28;20041;-75
2021/08/03 13:43:20;;;;;;;4.60;1.42;;;;;;;;;;5020185;28;20111;-76
2021/08/03 13:45:46;;;;;;;3.80;1.05;;;;;;;;;;5015310;28;20105;-74
2021/08/03 13:48:13;;;;;;;2.05;1.10;;;;;;;;;;5024778;28;20476;-74
2021/08/03 13:50:39;;;;;;;4.22;1.20;;;;;;;;;;5026788;28;20048;-75
2021/08/03 13:53:06;;;;;;;2.88;1.30;;;;;;;;;;5027183;28;20091;-74
2021/08/03 13:55:32;;;;;;;3.05;1.20;;;;;;;;;;5026236;28;20033;-76
2021/08/03 13:57:59;;;;;;;2.78;1.20;;;;;;;;;;5025972;28;20061;-76
2021/08/03 14:00:25;;;;;;;3.13;1.20;;;;;;;;;;5027186;28;20060;-75
2021/08/03 14:02:52;;;;;;;4.43;1.50;;;;;;;;;;5030807;28;20091;-76
2021/08/03 14:05:18;;;;;;;6.35;1.38;;;;;;;;;;5020355;28;20053;-77
2021/08/03 14:07:45;;;;;;;3.60;1.17;;;;;;;;;;5020588;28;20061;-75
2021/08/03 14:10:12;;;;;;;2.90;1.20;;;;;;;;;;5022505;28;20814;-75
2021/08/03 14:12:38;;;;;;;4.70;1.38;;;;;;;;;;5021545;28;20476;-76
2021/08/03 14:15:05;;;;;;;3.97;1.55;;;;;;;;;;5023041;28;20057;-75
2021/08/03 14:17:31;;;;;;;2.05;1.20;;;;;;;;;;5021837;28;20057;-75
2021/08/03 14:19:58;;;;;;;2.80;1.10;;;;;;;;;;5022178;28;20681;-76
2021/08/03 14:22:24;;;;;;;2.45;1.20;;;;;;;;;;5021484;28;20482;-76
2021/08/03 14:24:51;;;;;;;3.00;1.20;;;;;;;;;;5022391;28;20097;-76
2021/08/03 14:27:17;;;;;;;3.00;1.42;;;;;;;;;;5017305;28;20185;-77
2021/08/03 14:29:45;;;;;;;3.40;1.25;;;;;;;;;;5023257;28;20560;-76
2021/08/03 14:32:11;;;;;;;6.65;1.63;;;;;;;;;;5021791;28;20061;-76
2021/08/03 14:34:38;;;;;;;2.97;1.40;;;;;;;;;;5022452;28;20064;-76
2021/08/03 14:37:04;;;;;;;2.45;1.10;;;;;;;;;;5022311;28;20065;-76
2021/08/03 14:39:31;;;;;;;2.47;1.00;;;;;;;;;;5021125;28;20537;-76
2021/08/03 14:41:57;;;;;;;3.50;1.40;;;;;;;;;;5021745;28;20061;-76
2021/08/03 14:44:23;;;;;;;3.67;1.17;;;;;;;;;;5051730;28;20064;-76
2021/08/03 14:46:50;;;;;;;3.40;1.30;;;;;;;;;;5022287;28;20057;-76
2021/08/03 14:49:16;;;;;;;1.73;1.02;;;;;;;;;;5051672;28;20484;-76
2021/08/03 14:51:42;;;;;;;3.13;1.05;;;;;;;;;;5023573;28;20077;-77